sensor_id;sensor_type;location;lat;lon;timestamp;pressure;altitude;pressure_sealevel;temperature;humidity
34065;BME280;20339;49.754;20.158;2023-02-28T00:01:55;97731.69;;;-2.20;80.38
34065;BME280;20339;49.754;20.158;2023-02-28T00:04:25;97737.27;;;-2.22;80.07
34065;BME280;20339;49.754;20.158;2023-02-28T00:06:54;97741.15;;;-2.23;80.45
34065;BME280;20339;49.754;20.158;2023-02-28T00:09:23;97739.42;;;-2.23;80.24
34065;BME280;20339;49.754;20.158;2023-02-28T00:11:53;97741.93;;;-2.23;80.36
34065;BME280;20339;49.754;20.158;2023-02-28T00:14:22;97744.58;;;-2.26;80.35
34065;BME280;20339;49.754;20.158;2023-02-28T00:16:52;97741.24;;;-2.27;80.35
34065;BME280;20339;49.754;20.158;2023-02-28T00:19:21;97743.83;;;-2.30;80.29
34065;BME280;20339;49.754;20.158;2023-02-28T00:21:51;97744.27;;;-2.33;80.22
34065;BME280;20339;49.754;20.158;2023-02-28T00:24:20;97753.36;;;-2.34;80.21
34065;BME280;20339;49.754;20.158;2023-02-28T00:26:49;97747.55;;;-2.35;80.54
34065;BME280;20339;49.754;20.158;2023-02-28T00:29:19;97748.11;;;-2.37;80.23
34065;BME280;20339;49.754;20.158;2023-02-28T00:31:48;97749.09;;;-2.40;80.15
34065;BME280;20339;49.754;20.158;2023-02-28T00:34:18;97754.33;;;-2.42;80.19
34065;BME280;20339;49.754;20.158;2023-02-28T00:36:47;97763.05;;;-2.41;80.40
34065;BME280;20339;49.754;20.158;2023-02-28T00:39:17;97758.84;;;-2.42;80.25
34065;BME280;20339;49.754;20.158;2023-02-28T00:41:47;97758.34;;;-2.42;80.52
34065;BME280;20339;49.754;20.158;2023-02-28T00:44:16;97756.95;;;-2.42;80.38
34065;BME280;20339;49.754;20.158;2023-02-28T00:46:46;97755.71;;;-2.42;80.41
34065;BME280;20339;49.754;20.158;2023-02-28T00:49:15;97755.94;;;-2.43;80.51
34065;BME280;20339;49.754;20.158;2023-02-28T00:51:44;97760.98;;;-2.44;80.40
34065;BME280;20339;49.754;20.158;2023-02-28T00:54:14;97769.30;;;-2.44;80.34
34065;BME280;20339;49.754;20.158;2023-02-28T00:56:43;97769.14;;;-2.44;80.24
34065;BME280;20339;49.754;20.158;2023-02-28T00:59:14;97769.16;;;-2.43;80.42
34065;BME280;20339;49.754;20.158;2023-02-28T01:01:44;97768.27;;;-2.41;80.48
34065;BME280;20339;49.754;20.158;2023-02-28T01:04:14;97767.23;;;-2.40;80.57
34065;BME280;20339;49.754;20.158;2023-02-28T01:06:44;97763.86;;;-2.39;80.42
34065;BME280;20339;49.754;20.158;2023-02-28T01:09:13;97764.19;;;-2.38;80.39
34065;BME280;20339;49.754;20.158;2023-02-28T01:11:43;97760.30;;;-2.40;80.27
34065;BME280;20339;49.754;20.158;2023-02-28T01:14:14;97755.59;;;-2.39;80.47
34065;BME280;20339;49.754;20.158;2023-02-28T01:16:43;97757.38;;;-2.37;80.35
34065;BME280;20339;49.754;20.158;2023-02-28T01:19:13;97756.63;;;-2.43;80.24
34065;BME280;20339;49.754;20.158;2023-02-28T01:21:42;97754.48;;;-2.48;80.42
34065;BME280;20339;49.754;20.158;2023-02-28T01:24:12;97753.46;;;-2.51;80.48
34065;BME280;20339;49.754;20.158;2023-02-28T01:26:41;97755.21;;;-2.53;80.46
34065;BME280;20339;49.754;20.158;2023-02-28T01:29:11;97754.44;;;-2.57;80.54
34065;BME280;20339;49.754;20.158;2023-02-28T01:31:40;97753.10;;;-2.62;80.69
34065;BME280;20339;49.754;20.158;2023-02-28T01:34:10;97752.24;;;-2.67;80.49
34065;BME280;20339;49.754;20.158;2023-02-28T01:36:40;97749.52;;;-2.76;80.28
34065;BME280;20339;49.754;20.158;2023-02-28T01:39:09;97747.25;;;-2.85;80.34
34065;BME280;20339;49.754;20.158;2023-02-28T01:41:40;97745.91;;;-2.91;80.51
34065;BME280;20339;49.754;20.158;2023-02-28T01:46:53;97744.49;;;-3.06;80.36
34065;BME280;20339;49.754;20.158;2023-02-28T01:49:23;97740.80;;;-3.15;80.84
34065;BME280;20339;49.754;20.158;2023-02-28T01:51:53;97739.42;;;-3.24;81.19
34065;BME280;20339;49.754;20.158;2023-02-28T01:54:25;97737.42;;;-3.33;81.17
34065;BME280;20339;49.754;20.158;2023-02-28T01:56:56;97735.20;;;-3.40;81.22
34065;BME280;20339;49.754;20.158;2023-02-28T01:59:29;97732.66;;;-3.44;81.16
34065;BME280;20339;49.754;20.158;2023-02-28T02:02:01;97734.50;;;-3.46;81.08
34065;BME280;20339;49.754;20.158;2023-02-28T02:04:34;97730.68;;;-3.51;81.00
34065;BME280;20339;49.754;20.158;2023-02-28T02:07:05;97730.90;;;-3.53;81.10
34065;BME280;20339;49.754;20.158;2023-02-28T02:09:35;97732.33;;;-3.64;81.08
34065;BME280;20339;49.754;20.158;2023-02-28T02:12:06;97732.52;;;-3.77;81.00
34065;BME280;20339;49.754;20.158;2023-02-28T02:14:43;97736.34;;;-3.85;80.97
34065;BME280;20339;49.754;20.158;2023-02-28T02:17:20;97734.10;;;-3.92;80.86
34065;BME280;20339;49.754;20.158;2023-02-28T02:20:03;97739.16;;;-3.96;80.62
34065;BME280;20339;49.754;20.158;2023-02-28T02:22:39;97732.46;;;-3.98;80.52
34065;BME280;20339;49.754;20.158;2023-02-28T02:25:20;97726.02;;;-4.01;80.90
34065;BME280;20339;49.754;20.158;2023-02-28T02:27:58;97730.39;;;-4.06;81.02
34065;BME280;20339;49.754;20.158;2023-02-28T02:36:06;97713.95;;;-4.24;80.41
34065;BME280;20339;49.754;20.158;2023-02-28T02:38:38;97713.94;;;-4.27;80.52
34065;BME280;20339;49.754;20.158;2023-02-28T02:41:12;97713.34;;;-4.32;80.77
34065;BME280;20339;49.754;20.158;2023-02-28T02:43:44;97709.08;;;-4.44;80.64
34065;BME280;20339;49.754;20.158;2023-02-28T02:46:16;97711.58;;;-4.58;80.63
34065;BME280;20339;49.754;20.158;2023-02-28T02:48:48;97712.61;;;-4.65;80.79
34065;BME280;20339;49.754;20.158;2023-02-28T02:51:20;97714.10;;;-4.69;81.06
34065;BME280;20339;49.754;20.158;2023-02-28T02:53:51;97711.77;;;-4.73;81.15
34065;BME280;20339;49.754;20.158;2023-02-28T02:56:23;97710.70;;;-4.74;81.22
34065;BME280;20339;49.754;20.158;2023-02-28T02:58:54;97710.59;;;-4.73;81.05
34065;BME280;20339;49.754;20.158;2023-02-28T03:01:25;97712.30;;;-4.74;81.18
34065;BME280;20339;49.754;20.158;2023-02-28T03:03:57;97714.76;;;-4.76;81.24
34065;BME280;20339;49.754;20.158;2023-02-28T03:06:27;97726.09;;;-4.82;81.44
34065;BME280;20339;49.754;20.158;2023-02-28T03:08:57;97723.89;;;-4.86;81.40
34065;BME280;20339;49.754;20.158;2023-02-28T03:11:26;97727.36;;;-4.95;81.49
34065;BME280;20339;49.754;20.158;2023-02-28T03:13:59;97731.95;;;-5.03;81.66
34065;BME280;20339;49.754;20.158;2023-02-28T03:16:35;97730.59;;;-5.10;81.65
34065;BME280;20339;49.754;20.158;2023-02-28T03:19:10;97725.54;;;-5.20;81.96
34065;BME280;20339;49.754;20.158;2023-02-28T03:21:43;97728.80;;;-5.25;81.95
34065;BME280;20339;49.754;20.158;2023-02-28T03:24:14;97737.23;;;-5.23;82.09
34065;BME280;20339;49.754;20.158;2023-02-28T03:26:50;97733.73;;;-5.23;81.99
34065;BME280;20339;49.754;20.158;2023-02-28T03:29:22;97736.41;;;-5.28;82.23
34065;BME280;20339;49.754;20.158;2023-02-28T03:31:53;97737.55;;;-5.33;82.35
34065;BME280;20339;49.754;20.158;2023-02-28T03:34:28;97741.09;;;-5.38;82.37
34065;BME280;20339;49.754;20.158;2023-02-28T03:37:02;97747.86;;;-5.40;82.42
34065;BME280;20339;49.754;20.158;2023-02-28T03:39:34;97747.73;;;-5.40;82.44
34065;BME280;20339;49.754;20.158;2023-02-28T03:42:06;97749.02;;;-5.45;82.47
34065;BME280;20339;49.754;20.158;2023-02-28T03:44:39;97750.05;;;-5.45;82.57
34065;BME280;20339;49.754;20.158;2023-02-28T03:47:12;97748.84;;;-5.40;82.49
34065;BME280;20339;49.754;20.158;2023-02-28T03:49:45;97748.13;;;-5.38;82.41
34065;BME280;20339;49.754;20.158;2023-02-28T03:52:15;97744.26;;;-5.37;82.42
34065;BME280;20339;49.754;20.158;2023-02-28T03:54:48;97743.90;;;-5.37;82.42
34065;BME280;20339;49.754;20.158;2023-02-28T03:57:23;97751.17;;;-5.37;82.44
34065;BME280;20339;49.754;20.158;2023-02-28T03:59:57;97756.23;;;-5.45;82.30
34065;BME280;20339;49.754;20.158;2023-02-28T04:02:29;97753.30;;;-5.55;82.31
34065;BME280;20339;49.754;20.158;2023-02-28T04:04:58;97757.25;;;-5.67;82.33
34065;BME280;20339;49.754;20.158;2023-02-28T04:07:30;97758.09;;;-5.76;82.45
34065;BME280;20339;49.754;20.158;2023-02-28T04:09:59;97759.42;;;-5.77;82.69
34065;BME280;20339;49.754;20.158;2023-02-28T04:12:29;97769.37;;;-5.75;82.86
34065;BME280;20339;49.754;20.158;2023-02-28T04:14:58;97765.81;;;-5.76;82.90
34065;BME280;20339;49.754;20.158;2023-02-28T04:17:27;97765.83;;;-5.76;82.82
34065;BME280;20339;49.754;20.158;2023-02-28T04:19:57;97762.47;;;-5.82;82.81
34065;BME280;20339;49.754;20.158;2023-02-28T04:22:26;97759.75;;;-5.88;82.92
34065;BME280;20339;49.754;20.158;2023-02-28T04:24:56;97758.16;;;-5.91;83.18
34065;BME280;20339;49.754;20.158;2023-02-28T04:27:25;97757.73;;;-5.91;83.39
34065;BME280;20339;49.754;20.158;2023-02-28T04:29:54;97763.30;;;-5.92;83.42
34065;BME280;20339;49.754;20.158;2023-02-28T04:32:24;97763.84;;;-5.96;83.41
34065;BME280;20339;49.754;20.158;2023-02-28T04:34:53;97761.00;;;-5.92;83.75
34065;BME280;20339;49.754;20.158;2023-02-28T04:37:27;97763.02;;;-5.93;83.59
34065;BME280;20339;49.754;20.158;2023-02-28T04:40:03;97766.13;;;-5.98;83.49
34065;BME280;20339;49.754;20.158;2023-02-28T04:42:33;97765.66;;;-5.99;83.52
34065;BME280;20339;49.754;20.158;2023-02-28T04:45:04;97766.61;;;-5.94;83.55
34065;BME280;20339;49.754;20.158;2023-02-28T04:47:34;97760.55;;;-5.89;83.92
34065;BME280;20339;49.754;20.158;2023-02-28T04:50:03;97763.65;;;-5.84;83.79
34065;BME280;20339;49.754;20.158;2023-02-28T04:52:33;97767.25;;;-5.87;83.62
34065;BME280;20339;49.754;20.158;2023-02-28T04:55:03;97770.08;;;-5.88;83.73
34065;BME280;20339;49.754;20.158;2023-02-28T04:57:33;97772.61;;;-5.94;83.36
34065;BME280;20339;49.754;20.158;2023-02-28T05:00:03;97773.75;;;-6.01;83.65
34065;BME280;20339;49.754;20.158;2023-02-28T05:02:39;97766.98;;;-6.04;83.78
34065;BME280;20339;49.754;20.158;2023-02-28T05:05:09;97770.03;;;-6.02;83.85
34065;BME280;20339;49.754;20.158;2023-02-28T05:07:38;97771.89;;;-6.05;83.80
34065;BME280;20339;49.754;20.158;2023-02-28T05:10:09;97772.08;;;-6.09;83.79
34065;BME280;20339;49.754;20.158;2023-02-28T05:12:39;97777.47;;;-6.06;83.83
34065;BME280;20339;49.754;20.158;2023-02-28T05:15:10;97775.86;;;-6.03;83.94
34065;BME280;20339;49.754;20.158;2023-02-28T05:17:41;97779.17;;;-6.08;83.92
34065;BME280;20339;49.754;20.158;2023-02-28T05:20:12;97779.05;;;-6.08;84.20
34065;BME280;20339;49.754;20.158;2023-02-28T05:22:41;97776.52;;;-5.99;84.17
34065;BME280;20339;49.754;20.158;2023-02-28T05:25:12;97778.96;;;-5.98;83.96
34065;BME280;20339;49.754;20.158;2023-02-28T05:27:42;97779.92;;;-6.03;84.25
34065;BME280;20339;49.754;20.158;2023-02-28T05:30:12;97783.41;;;-6.03;83.92
34065;BME280;20339;49.754;20.158;2023-02-28T05:32:42;97784.31;;;-6.05;84.25
34065;BME280;20339;49.754;20.158;2023-02-28T05:35:11;97790.17;;;-6.06;84.28
34065;BME280;20339;49.754;20.158;2023-02-28T05:37:41;97793.40;;;-6.01;84.19
34065;BME280;20339;49.754;20.158;2023-02-28T05:40:11;97795.84;;;-5.94;84.53
34065;BME280;20339;49.754;20.158;2023-02-28T05:42:41;97800.35;;;-5.92;84.40
34065;BME280;20339;49.754;20.158;2023-02-28T05:45:11;97805.33;;;-5.87;84.50
34065;BME280;20339;49.754;20.158;2023-02-28T05:47:40;97808.38;;;-5.85;84.66
34065;BME280;20339;49.754;20.158;2023-02-28T05:50:10;97809.11;;;-5.82;84.63
34065;BME280;20339;49.754;20.158;2023-02-28T05:52:40;97810.45;;;-5.75;84.59
34065;BME280;20339;49.754;20.158;2023-02-28T05:55:10;97812.13;;;-5.69;84.82
34065;BME280;20339;49.754;20.158;2023-02-28T05:57:39;97814.52;;;-5.63;84.64
34065;BME280;20339;49.754;20.158;2023-02-28T06:00:09;97817.98;;;-5.54;84.88
34065;BME280;20339;49.754;20.158;2023-02-28T06:02:39;97823.75;;;-5.46;84.95
34065;BME280;20339;49.754;20.158;2023-02-28T06:05:09;97824.59;;;-5.35;85.12
34065;BME280;20339;49.754;20.158;2023-02-28T06:07:42;97821.77;;;-5.24;85.02
34065;BME280;20339;49.754;20.158;2023-02-28T06:10:11;97823.39;;;-5.18;85.03
34065;BME280;20339;49.754;20.158;2023-02-28T06:12:41;97822.89;;;-5.11;85.10
34065;BME280;20339;49.754;20.158;2023-02-28T06:15:12;97822.39;;;-5.00;85.19
34065;BME280;20339;49.754;20.158;2023-02-28T06:17:42;97830.58;;;-4.91;85.25
34065;BME280;20339;49.754;20.158;2023-02-28T06:20:12;97831.37;;;-4.88;85.07
34065;BME280;20339;49.754;20.158;2023-02-28T06:22:42;97834.38;;;-4.87;84.87
34065;BME280;20339;49.754;20.158;2023-02-28T06:25:11;97836.70;;;-4.83;84.97
34065;BME280;20339;49.754;20.158;2023-02-28T06:27:40;97839.13;;;-4.72;84.79
34065;BME280;20339;49.754;20.158;2023-02-28T06:30:11;97836.94;;;-4.63;85.06
34065;BME280;20339;49.754;20.158;2023-02-28T06:32:41;97837.73;;;-4.48;85.01
34065;BME280;20339;49.754;20.158;2023-02-28T06:35:10;97839.23;;;-4.36;84.91
34065;BME280;20339;49.754;20.158;2023-02-28T06:37:41;97843.58;;;-4.19;85.27
34065;BME280;20339;49.754;20.158;2023-02-28T06:40:12;97841.34;;;-4.01;85.30
34065;BME280;20339;49.754;20.158;2023-02-28T06:42:42;97846.98;;;-3.78;85.38
34065;BME280;20339;49.754;20.158;2023-02-28T06:45:12;97840.26;;;-3.43;85.38
34065;BME280;20339;49.754;20.158;2023-02-28T06:47:41;97836.56;;;-2.79;85.60
34065;BME280;20339;49.754;20.158;2023-02-28T06:50:11;97837.69;;;-2.14;85.06
34065;BME280;20339;49.754;20.158;2023-02-28T06:52:41;97840.70;;;-1.21;85.05
34065;BME280;20339;49.754;20.158;2023-02-28T06:55:10;97831.48;;;-0.24;84.36
34065;BME280;20339;49.754;20.158;2023-02-28T06:57:40;97831.98;;;0.45;83.06
34065;BME280;20339;49.754;20.158;2023-02-28T07:00:12;97830.17;;;0.86;81.45
34065;BME280;20339;49.754;20.158;2023-02-28T07:02:41;97829.35;;;0.88;79.85
34065;BME280;20339;49.754;20.158;2023-02-28T07:05:11;97827.34;;;0.85;78.83
34065;BME280;20339;49.754;20.158;2023-02-28T07:07:40;97829.23;;;0.91;78.37
34065;BME280;20339;49.754;20.158;2023-02-28T07:10:12;97831.81;;;1.00;77.81
34065;BME280;20339;49.754;20.158;2023-02-28T07:12:44;97835.45;;;1.12;77.35
34065;BME280;20339;49.754;20.158;2023-02-28T07:15:14;97836.72;;;1.39;77.12
34065;BME280;20339;49.754;20.158;2023-02-28T07:17:43;97844.20;;;1.88;77.00
34065;BME280;20339;49.754;20.158;2023-02-28T07:20:13;97845.17;;;2.50;76.63
34065;BME280;20339;49.754;20.158;2023-02-28T07:22:42;97844.48;;;3.15;75.73
34065;BME280;20339;49.754;20.158;2023-02-28T07:25:12;97839.96;;;3.54;74.17
34065;BME280;20339;49.754;20.158;2023-02-28T07:27:41;97839.68;;;4.06;73.55
34065;BME280;20339;49.754;20.158;2023-02-28T07:30:11;97841.54;;;4.51;71.34
34065;BME280;20339;49.754;20.158;2023-02-28T07:32:41;97837.19;;;4.67;70.60
34065;BME280;20339;49.754;20.158;2023-02-28T07:35:10;97842.20;;;5.00;68.90
34065;BME280;20339;49.754;20.158;2023-02-28T07:37:40;97837.30;;;5.14;67.85
34065;BME280;20339;49.754;20.158;2023-02-28T07:40:10;97840.67;;;5.50;63.01
34065;BME280;20339;49.754;20.158;2023-02-28T07:42:40;97839.56;;;4.96;57.11
34065;BME280;20339;49.754;20.158;2023-02-28T07:45:10;97844.05;;;4.97;58.23
34065;BME280;20339;49.754;20.158;2023-02-28T07:47:41;97846.05;;;5.19;53.88
34065;BME280;20339;49.754;20.158;2023-02-28T07:50:12;97852.00;;;4.97;52.11
34065;BME280;20339;49.754;20.158;2023-02-28T07:52:42;97852.86;;;5.01;51.92
34065;BME280;20339;49.754;20.158;2023-02-28T07:55:11;97853.21;;;4.84;49.54
34065;BME280;20339;49.754;20.158;2023-02-28T07:57:41;97846.80;;;4.67;52.51
34065;BME280;20339;49.754;20.158;2023-02-28T08:00:12;97847.26;;;5.24;51.76
34065;BME280;20339;49.754;20.158;2023-02-28T08:02:41;97848.71;;;5.65;50.43
34065;BME280;20339;49.754;20.158;2023-02-28T08:05:11;97848.36;;;5.63;48.74
34065;BME280;20339;49.754;20.158;2023-02-28T08:07:40;97849.67;;;5.62;47.53
34065;BME280;20339;49.754;20.158;2023-02-28T08:10:10;97848.71;;;5.51;46.64
34065;BME280;20339;49.754;20.158;2023-02-28T08:12:39;97848.71;;;5.82;50.17
34065;BME280;20339;49.754;20.158;2023-02-28T08:15:09;97847.60;;;7.29;50.87
34065;BME280;20339;49.754;20.158;2023-02-28T08:17:39;97845.66;;;7.95;50.10
34065;BME280;20339;49.754;20.158;2023-02-28T08:20:09;97838.91;;;8.74;50.34
34065;BME280;20339;49.754;20.158;2023-02-28T08:22:39;97838.61;;;9.51;50.82
34065;BME280;20339;49.754;20.158;2023-02-28T08:25:10;97832.81;;;10.40;51.24
34065;BME280;20339;49.754;20.158;2023-02-28T08:27:39;97841.31;;;11.12;46.84
34065;BME280;20339;49.754;20.158;2023-02-28T08:30:09;97841.48;;;10.19;40.68
34065;BME280;20339;49.754;20.158;2023-02-28T08:32:39;97849.41;;;7.43;39.17
34065;BME280;20339;49.754;20.158;2023-02-28T08:35:10;97850.89;;;5.94;42.45
34065;BME280;20339;49.754;20.158;2023-02-28T08:37:39;97850.35;;;6.74;46.26
34065;BME280;20339;49.754;20.158;2023-02-28T08:40:10;97846.02;;;8.28;46.15
34065;BME280;20339;49.754;20.158;2023-02-28T08:42:41;97849.20;;;8.44;42.35
34065;BME280;20339;49.754;20.158;2023-02-28T08:45:11;97850.75;;;7.66;40.96
34065;BME280;20339;49.754;20.158;2023-02-28T08:47:40;97848.79;;;7.65;44.07
34065;BME280;20339;49.754;20.158;2023-02-28T08:50:10;97849.11;;;7.95;43.56
34065;BME280;20339;49.754;20.158;2023-02-28T08:52:43;97845.17;;;8.48;45.16
34065;BME280;20339;49.754;20.158;2023-02-28T08:55:13;97839.11;;;9.08;45.37
34065;BME280;20339;49.754;20.158;2023-02-28T08:57:43;97837.33;;;9.47;45.86
34065;BME280;20339;49.754;20.158;2023-02-28T09:00:13;97840.83;;;9.32;44.65
34065;BME280;20339;49.754;20.158;2023-02-28T09:02:43;97841.08;;;8.34;43.21
34065;BME280;20339;49.754;20.158;2023-02-28T09:05:12;97839.84;;;7.92;45.80
34065;BME280;20339;49.754;20.158;2023-02-28T09:07:41;97844.73;;;7.20;44.16
34065;BME280;20339;49.754;20.158;2023-02-28T09:10:11;97846.31;;;6.72;46.23
34065;BME280;20339;49.754;20.158;2023-02-28T09:12:40;97844.33;;;6.67;46.96
34065;BME280;20339;49.754;20.158;2023-02-28T09:15:10;97844.56;;;6.50;46.88
34065;BME280;20339;49.754;20.158;2023-02-28T09:17:40;97849.60;;;5.70;44.26
34065;BME280;20339;49.754;20.158;2023-02-28T09:20:10;97848.20;;;4.77;45.77
34065;BME280;20339;49.754;20.158;2023-02-28T09:22:40;97842.91;;;4.76;47.83
34065;BME280;20339;49.754;20.158;2023-02-28T09:25:09;97843.20;;;5.01;48.24
34065;BME280;20339;49.754;20.158;2023-02-28T09:27:39;97842.11;;;5.02;47.44
34065;BME280;20339;49.754;20.158;2023-02-28T09:30:09;97840.77;;;4.85;48.26
34065;BME280;20339;49.754;20.158;2023-02-28T09:32:39;97832.80;;;4.98;48.94
34065;BME280;20339;49.754;20.158;2023-02-28T09:35:08;97834.13;;;4.83;47.27
34065;BME280;20339;49.754;20.158;2023-02-28T09:37:42;97835.14;;;4.35;48.45
34065;BME280;20339;49.754;20.158;2023-02-28T09:40:12;97831.73;;;4.49;49.53
34065;BME280;20339;49.754;20.158;2023-02-28T09:42:46;97836.99;;;4.61;49.69
34065;BME280;20339;49.754;20.158;2023-02-28T09:45:19;97838.48;;;4.57;49.14
34065;BME280;20339;49.754;20.158;2023-02-28T09:47:52;97843.09;;;4.23;47.84
34065;BME280;20339;49.754;20.158;2023-02-28T09:50:28;97847.42;;;3.69;47.88
34065;BME280;20339;49.754;20.158;2023-02-28T09:53:01;97840.44;;;3.63;50.56
34065;BME280;20339;49.754;20.158;2023-02-28T09:55:33;97840.27;;;3.97;50.36
34065;BME280;20339;49.754;20.158;2023-02-28T09:58:05;97839.64;;;4.06;50.25
34065;BME280;20339;49.754;20.158;2023-02-28T10:00:43;97837.48;;;4.17;50.73
34065;BME280;20339;49.754;20.158;2023-02-28T10:03:26;97839.63;;;4.26;50.75
34065;BME280;20339;49.754;20.158;2023-02-28T10:06:00;97837.83;;;4.18;50.47
34065;BME280;20339;49.754;20.158;2023-02-28T10:08:37;97836.41;;;4.30;50.96
34065;BME280;20339;49.754;20.158;2023-02-28T10:11:14;97835.91;;;4.46;50.67
34065;BME280;20339;49.754;20.158;2023-02-28T10:13:48;97834.83;;;4.54;50.75
34065;BME280;20339;49.754;20.158;2023-02-28T10:16:21;97829.59;;;4.67;50.78
34065;BME280;20339;49.754;20.158;2023-02-28T10:18:54;97832.99;;;4.71;50.97
34065;BME280;20339;49.754;20.158;2023-02-28T10:21:27;97836.66;;;4.50;50.70
34065;BME280;20339;49.754;20.158;2023-02-28T10:23:59;97839.47;;;4.22;50.43
34065;BME280;20339;49.754;20.158;2023-02-28T10:26:31;97835.88;;;4.09;50.45
34065;BME280;20339;49.754;20.158;2023-02-28T10:29:00;97832.63;;;3.85;50.80
34065;BME280;20339;49.754;20.158;2023-02-28T10:31:30;97829.54;;;3.72;50.62
34065;BME280;20339;49.754;20.158;2023-02-28T10:34:00;97833.77;;;3.40;51.20
34065;BME280;20339;49.754;20.158;2023-02-28T10:36:29;97829.29;;;3.52;51.59
34065;BME280;20339;49.754;20.158;2023-02-28T10:38:58;97832.56;;;3.72;51.78
34065;BME280;20339;49.754;20.158;2023-02-28T10:41:29;97828.75;;;3.61;51.18
34065;BME280;20339;49.754;20.158;2023-02-28T10:44:14;97827.56;;;3.75;52.14
34065;BME280;20339;49.754;20.158;2023-02-28T10:46:44;97823.59;;;3.99;52.28
34065;BME280;20339;49.754;20.158;2023-02-28T10:49:16;97816.55;;;4.19;52.01
34065;BME280;20339;49.754;20.158;2023-02-28T10:51:46;97820.41;;;4.13;50.77
34065;BME280;20339;49.754;20.158;2023-02-28T10:54:18;97815.90;;;3.75;50.60
34065;BME280;20339;49.754;20.158;2023-02-28T10:56:54;97813.83;;;3.84;51.94
34065;BME280;20339;49.754;20.158;2023-02-28T10:59:35;97808.97;;;4.04;51.07
34065;BME280;20339;49.754;20.158;2023-02-28T11:02:08;97805.33;;;3.78;50.78
34065;BME280;20339;49.754;20.158;2023-02-28T11:04:57;97807.36;;;3.39;50.82
34065;BME280;20339;49.754;20.158;2023-02-28T11:07:27;97805.62;;;3.10;51.30
34065;BME280;20339;49.754;20.158;2023-02-28T11:09:57;97802.31;;;3.24;52.97
34065;BME280;20339;49.754;20.158;2023-02-28T11:12:28;97800.84;;;3.61;53.40
34065;BME280;20339;49.754;20.158;2023-02-28T11:14:58;97800.31;;;3.84;52.69
34065;BME280;20339;49.754;20.158;2023-02-28T11:17:29;97798.30;;;3.92;53.08
34065;BME280;20339;49.754;20.158;2023-02-28T11:20:00;97792.66;;;3.87;51.69
34065;BME280;20339;49.754;20.158;2023-02-28T11:22:31;97792.28;;;3.78;51.92
34065;BME280;20339;49.754;20.158;2023-02-28T11:25:09;97791.27;;;3.68;52.00
34065;BME280;20339;49.754;20.158;2023-02-28T11:27:44;97784.41;;;3.40;50.74
34065;BME280;20339;49.754;20.158;2023-02-28T11:30:33;97783.21;;;2.73;51.34
34065;BME280;20339;49.754;20.158;2023-02-28T11:33:14;97786.78;;;2.44;51.78
34065;BME280;20339;49.754;20.158;2023-02-28T11:35:48;97784.19;;;2.40;52.22
34065;BME280;20339;49.754;20.158;2023-02-28T11:38:18;97785.73;;;2.58;53.28
34065;BME280;20339;49.754;20.158;2023-02-28T11:40:48;97779.68;;;2.71;52.41
34065;BME280;20339;49.754;20.158;2023-02-28T11:43:23;97777.88;;;2.83;53.44
34065;BME280;20339;49.754;20.158;2023-02-28T11:46:02;97770.02;;;3.14;53.85
34065;BME280;20339;49.754;20.158;2023-02-28T11:48:37;97770.14;;;3.42;53.43
34065;BME280;20339;49.754;20.158;2023-02-28T11:51:12;97768.17;;;3.51;53.75
34065;BME280;20339;49.754;20.158;2023-02-28T11:53:50;97768.23;;;3.64;52.53
34065;BME280;20339;49.754;20.158;2023-02-28T11:56:25;97768.54;;;3.17;50.83
34065;BME280;20339;49.754;20.158;2023-02-28T11:59:01;97768.73;;;2.80;51.36
34065;BME280;20339;49.754;20.158;2023-02-28T12:01:37;97773.70;;;2.43;52.21
34065;BME280;20339;49.754;20.158;2023-02-28T12:04:17;97776.28;;;2.42;52.27
34065;BME280;20339;49.754;20.158;2023-02-28T12:06:52;97777.08;;;2.46;53.14
34065;BME280;20339;49.754;20.158;2023-02-28T12:09:35;97778.75;;;2.75;53.08
34065;BME280;20339;49.754;20.158;2023-02-28T12:12:13;97780.59;;;2.68;51.83
34065;BME280;20339;49.754;20.158;2023-02-28T12:17:43;97771.60;;;2.86;53.23
34065;BME280;20339;49.754;20.158;2023-02-28T12:20:21;97774.91;;;3.12;53.99
34065;BME280;20339;49.754;20.158;2023-02-28T12:22:57;97776.23;;;3.33;52.93
34065;BME280;20339;49.754;20.158;2023-02-28T12:25:39;97774.04;;;3.39;53.37
34065;BME280;20339;49.754;20.158;2023-02-28T12:28:13;97767.21;;;3.52;52.52
34065;BME280;20339;49.754;20.158;2023-02-28T12:30:45;97768.34;;;3.55;52.89
34065;BME280;20339;49.754;20.158;2023-02-28T12:33:20;97765.11;;;3.51;52.84
34065;BME280;20339;49.754;20.158;2023-02-28T12:35:52;97765.87;;;3.52;52.88
34065;BME280;20339;49.754;20.158;2023-02-28T12:38:25;97766.54;;;3.67;53.27
34065;BME280;20339;49.754;20.158;2023-02-28T12:40:58;97765.31;;;3.84;53.46
34065;BME280;20339;49.754;20.158;2023-02-28T12:43:30;97757.90;;;3.95;53.41
34065;BME280;20339;49.754;20.158;2023-02-28T12:46:02;97755.21;;;4.12;53.45
34065;BME280;20339;49.754;20.158;2023-02-28T12:48:39;97755.58;;;4.21;53.54
34065;BME280;20339;49.754;20.158;2023-02-28T12:51:09;97755.95;;;4.27;52.73
34065;BME280;20339;49.754;20.158;2023-02-28T12:53:46;97753.22;;;4.15;53.05
34065;BME280;20339;49.754;20.158;2023-02-28T12:56:20;97750.31;;;4.04;51.66
34065;BME280;20339;49.754;20.158;2023-02-28T12:58:57;97755.54;;;3.77;51.93
34065;BME280;20339;49.754;20.158;2023-02-28T13:01:33;97758.14;;;3.70;53.03
34065;BME280;20339;49.754;20.158;2023-02-28T13:07:10;97755.99;;;3.51;51.66
34065;BME280;20339;49.754;20.158;2023-02-28T13:09:44;97750.98;;;3.38;52.01
34065;BME280;20339;49.754;20.158;2023-02-28T13:12:20;97749.09;;;3.36;52.98
34065;BME280;20339;49.754;20.158;2023-02-28T13:15:07;97747.60;;;3.34;52.16
34065;BME280;20339;49.754;20.158;2023-02-28T13:17:40;97744.92;;;3.39;52.59
34065;BME280;20339;49.754;20.158;2023-02-28T13:20:16;97739.90;;;3.34;51.78
34065;BME280;20339;49.754;20.158;2023-02-28T13:22:46;97737.49;;;3.15;52.27
34065;BME280;20339;49.754;20.158;2023-02-28T13:28:00;97738.98;;;3.42;53.64
34065;BME280;20339;49.754;20.158;2023-02-28T13:33:29;97731.06;;;3.70;53.98
34065;BME280;20339;49.754;20.158;2023-02-28T13:36:10;97728.17;;;3.90;53.78
34065;BME280;20339;49.754;20.158;2023-02-28T13:38:41;97728.57;;;3.93;52.43